sensor_id;sensor_type;location;lat;lon;timestamp;pressure;altitude;pressure_sealevel;temperature;humidity
12785;BME280;6456;42.680;23.260;2023-07-13T00:01:45;94850.34;;;24.69;65.79
12785;BME280;6456;42.680;23.260;2023-07-13T00:04:15;94849.44;;;24.73;66.97
12785;BME280;6456;42.680;23.260;2023-07-13T00:06:44;94864.50;;;24.74;67.46
12785;BME280;6456;42.680;23.260;2023-07-13T00:09:11;94861.91;;;24.69;67.21
12785;BME280;6456;42.680;23.260;2023-07-13T00:11:39;94807.94;;;24.29;67.69
12785;BME280;6456;42.680;23.260;2023-07-13T00:14:06;94799.06;;;24.28;68.52
12785;BME280;6456;42.680;23.260;2023-07-13T00:16:34;94868.94;;;24.65;68.63
12785;BME280;6456;42.680;23.260;2023-07-13T00:19:01;94886.84;;;24.75;68.75
12785;BME280;6456;42.680;23.260;2023-07-13T00:21:28;94856.03;;;24.49;68.05
12785;BME280;6456;42.680;23.260;2023-07-13T00:23:57;94814.28;;;24.19;66.66
12785;BME280;6456;42.680;23.260;2023-07-13T00:26:25;94816.91;;;24.24;66.25
12785;BME280;6456;42.680;23.260;2023-07-13T00:28:54;94877.41;;;24.59;67.06
12785;BME280;6456;42.680;23.260;2023-07-13T00:31:20;94839.41;;;24.28;67.95
12785;BME280;6456;42.680;23.260;2023-07-13T00:33:47;94862.66;;;24.38;68.64
12785;BME280;6456;42.680;23.260;2023-07-13T00:36:14;94853.28;;;24.35;70.17
12785;BME280;6456;42.680;23.260;2023-07-13T00:38:41;94873.34;;;24.43;71.65
12785;BME280;6456;42.680;23.260;2023-07-13T00:41:10;94835.16;;;24.08;72.38
12785;BME280;6456;42.680;23.260;2023-07-13T00:43:37;94826.25;;;23.89;74.07
12785;BME280;6456;42.680;23.260;2023-07-13T00:46:22;94811.56;;;23.63;75.65
12785;BME280;6456;42.680;23.260;2023-07-13T00:48:50;94870.84;;;23.90;76.56
12785;BME280;6456;42.680;23.260;2023-07-13T00:51:21;94796.88;;;23.37;76.90
12785;BME280;6456;42.680;23.260;2023-07-13T00:53:50;94841.22;;;23.53;77.48
12785;BME280;6456;42.680;23.260;2023-07-13T00:56:19;94799.59;;;23.32;77.80
12785;BME280;6456;42.680;23.260;2023-07-13T00:58:46;94836.59;;;23.58;77.90
12785;BME280;6456;42.680;23.260;2023-07-13T01:01:13;94809.19;;;23.38;78.79
12785;BME280;6456;42.680;23.260;2023-07-13T01:03:40;94833.41;;;23.56;78.70
12785;BME280;6456;42.680;23.260;2023-07-13T01:06:07;94869.72;;;23.73;79.29
12785;BME280;6456;42.680;23.260;2023-07-13T01:08:34;94849.16;;;23.63;79.89
12785;BME280;6456;42.680;23.260;2023-07-13T01:11:01;94868.16;;;23.72;80.79
12785;BME280;6456;42.680;23.260;2023-07-13T01:13:29;94829.59;;;23.39;80.94
12785;BME280;6456;42.680;23.260;2023-07-13T01:15:58;94885.75;;;23.59;81.70
12785;BME280;6456;42.680;23.260;2023-07-13T01:18:29;94830.31;;;23.21;82.00
12785;BME280;6456;42.680;23.260;2023-07-13T01:21:00;94840.44;;;23.29;82.80
12785;BME280;6456;42.680;23.260;2023-07-13T01:23:28;94812.19;;;23.08;82.67
12785;BME280;6456;42.680;23.260;2023-07-13T01:25:56;94797.06;;;22.93;83.32
12785;BME280;6456;42.680;23.260;2023-07-13T01:28:24;94857.56;;;23.33;83.64
12785;BME280;6456;42.680;23.260;2023-07-13T01:30:54;94824.84;;;23.07;82.85
12785;BME280;6456;42.680;23.260;2023-07-13T01:33:21;94854.41;;;23.26;82.09
12785;BME280;6456;42.680;23.260;2023-07-13T01:35:48;94777.06;;;22.80;81.51
12785;BME280;6456;42.680;23.260;2023-07-13T01:38:18;94824.09;;;23.02;80.87
12785;BME280;6456;42.680;23.260;2023-07-13T01:40:46;94820.19;;;23.13;82.19
12785;BME280;6456;42.680;23.260;2023-07-13T01:43:13;94827.75;;;23.11;81.67
12785;BME280;6456;42.680;23.260;2023-07-13T01:45:40;94766.91;;;22.77;82.08
12785;BME280;6456;42.680;23.260;2023-07-13T01:48:09;94857.03;;;23.31;82.77
12785;BME280;6456;42.680;23.260;2023-07-13T01:50:36;94797.88;;;22.93;83.89
12785;BME280;6456;42.680;23.260;2023-07-13T01:53:04;94855.44;;;23.30;84.72
12785;BME280;6456;42.680;23.260;2023-07-13T01:55:33;94814.53;;;22.90;83.98
12785;BME280;6456;42.680;23.260;2023-07-13T01:58:00;94856.00;;;23.03;84.79
12785;BME280;6456;42.680;23.260;2023-07-13T02:00:27;94838.28;;;22.78;85.87
12785;BME280;6456;42.680;23.260;2023-07-13T02:02:54;94843.63;;;22.78;87.05
12785;BME280;6456;42.680;23.260;2023-07-13T02:05:21;94831.94;;;22.69;87.54
12785;BME280;6456;42.680;23.260;2023-07-13T02:07:48;94872.50;;;22.91;87.95
12785;BME280;6456;42.680;23.260;2023-07-13T02:10:15;94843.97;;;22.72;87.88
12785;BME280;6456;42.680;23.260;2023-07-13T02:12:44;94880.53;;;22.91;88.51
12785;BME280;6456;42.680;23.260;2023-07-13T02:15:11;94883.22;;;22.91;88.96
12785;BME280;6456;42.680;23.260;2023-07-13T02:17:39;94833.06;;;22.58;88.80
12785;BME280;6456;42.680;23.260;2023-07-13T02:20:07;94878.94;;;22.90;88.93
12785;BME280;6456;42.680;23.260;2023-07-13T02:22:35;94839.72;;;22.66;88.91
12785;BME280;6456;42.680;23.260;2023-07-13T02:25:02;94803.13;;;22.46;88.81
12785;BME280;6456;42.680;23.260;2023-07-13T02:27:29;94834.13;;;22.62;89.14
12785;BME280;6456;42.680;23.260;2023-07-13T02:29:57;94808.03;;;22.39;89.00
12785;BME280;6456;42.680;23.260;2023-07-13T02:32:24;94887.28;;;22.89;89.35
12785;BME280;6456;42.680;23.260;2023-07-13T02:34:51;94880.06;;;22.84;89.98
12785;BME280;6456;42.680;23.260;2023-07-13T02:37:19;94842.41;;;22.61;90.25
12785;BME280;6456;42.680;23.260;2023-07-13T02:39:47;94811.78;;;22.38;91.16
12785;BME280;6456;42.680;23.260;2023-07-13T02:42:14;94879.50;;;22.87;91.46
12785;BME280;6456;42.680;23.260;2023-07-13T02:44:41;94839.50;;;22.57;91.95
12785;BME280;6456;42.680;23.260;2023-07-13T02:47:09;94815.78;;;22.41;91.30
12785;BME280;6456;42.680;23.260;2023-07-13T02:49:36;94876.38;;;22.75;91.62
12785;BME280;6456;42.680;23.260;2023-07-13T02:52:04;94810.75;;;22.34;91.25
12785;BME280;6456;42.680;23.260;2023-07-13T02:54:31;94873.47;;;22.72;91.76
12785;BME280;6456;42.680;23.260;2023-07-13T02:56:58;94884.25;;;22.67;92.51
12785;BME280;6456;42.680;23.260;2023-07-13T02:59:25;94862.59;;;22.53;91.84
12785;BME280;6456;42.680;23.260;2023-07-13T03:01:52;94898.47;;;22.62;93.30
12785;BME280;6456;42.680;23.260;2023-07-13T03:04:20;94886.97;;;22.62;93.33
12785;BME280;6456;42.680;23.260;2023-07-13T03:06:47;94822.66;;;22.18;93.78
12785;BME280;6456;42.680;23.260;2023-07-13T03:09:14;94828.56;;;22.15;93.91
12785;BME280;6456;42.680;23.260;2023-07-13T03:11:41;94897.97;;;22.55;94.65
12785;BME280;6456;42.680;23.260;2023-07-13T03:14:09;94791.81;;;21.82;95.18
12785;BME280;6456;42.680;23.260;2023-07-13T03:16:36;94794.19;;;21.83;95.51
12785;BME280;6456;42.680;23.260;2023-07-13T03:19:03;94773.94;;;21.67;95.39
12785;BME280;6456;42.680;23.260;2023-07-13T03:21:31;94863.31;;;22.30;95.49
12785;BME280;6456;42.680;23.260;2023-07-13T03:23:58;94807.28;;;21.95;95.86
12785;BME280;6456;42.680;23.260;2023-07-13T03:26:25;94859.56;;;22.31;96.48
12785;BME280;6456;42.680;23.260;2023-07-13T03:28:52;94876.13;;;22.38;96.09
12785;BME280;6456;42.680;23.260;2023-07-13T03:31:20;94864.91;;;22.31;96.12
12785;BME280;6456;42.680;23.260;2023-07-13T03:33:48;94852.34;;;22.26;95.50
12785;BME280;6456;42.680;23.260;2023-07-13T03:36:17;94826.97;;;22.14;94.63
12785;BME280;6456;42.680;23.260;2023-07-13T03:38:47;94804.03;;;21.98;95.11
12785;BME280;6456;42.680;23.260;2023-07-13T03:41:15;94811.78;;;22.04;95.20
12785;BME280;6456;42.680;23.260;2023-07-13T03:43:42;94886.94;;;22.67;94.93
12785;BME280;6456;42.680;23.260;2023-07-13T03:46:09;94841.28;;;22.38;94.45
12785;BME280;6456;42.680;23.260;2023-07-13T03:48:36;94856.44;;;22.53;95.67
12785;BME280;6456;42.680;23.260;2023-07-13T03:51:05;94886.03;;;22.76;94.59
12785;BME280;6456;42.680;23.260;2023-07-13T03:53:32;94910.00;;;22.96;95.01
12785;BME280;6456;42.680;23.260;2023-07-13T03:56:00;94833.06;;;22.58;94.50
12785;BME280;6456;42.680;23.260;2023-07-13T03:58:30;94898.72;;;23.00;94.20
12785;BME280;6456;42.680;23.260;2023-07-13T04:01:00;94810.06;;;22.47;93.79
12785;BME280;6456;42.680;23.260;2023-07-13T04:03:28;94899.69;;;23.09;94.25
12785;BME280;6456;42.680;23.260;2023-07-13T04:05:58;94863.06;;;22.94;93.98
12785;BME280;6456;42.680;23.260;2023-07-13T04:08:26;94910.03;;;23.20;94.72
12785;BME280;6456;42.680;23.260;2023-07-13T04:10:53;94889.16;;;23.17;95.07
12785;BME280;6456;42.680;23.260;2023-07-13T04:13:22;94881.41;;;23.11;94.28
12785;BME280;6456;42.680;23.260;2023-07-13T04:15:49;94896.06;;;23.23;94.61
12785;BME280;6456;42.680;23.260;2023-07-13T04:18:16;94901.31;;;23.38;94.69
12785;BME280;6456;42.680;23.260;2023-07-13T04:20:43;94888.19;;;23.32;93.29
12785;BME280;6456;42.680;23.260;2023-07-13T04:23:10;94893.19;;;23.43;92.79
12785;BME280;6456;42.680;23.260;2023-07-13T04:25:37;94851.63;;;23.12;92.90
12785;BME280;6456;42.680;23.260;2023-07-13T04:28:05;94899.56;;;23.47;93.09
12785;BME280;6456;42.680;23.260;2023-07-13T04:30:34;94919.81;;;23.64;94.08
12785;BME280;6456;42.680;23.260;2023-07-13T04:33:01;94829.16;;;23.03;94.31
12785;BME280;6456;42.680;23.260;2023-07-13T04:35:28;94832.75;;;22.93;94.14
12785;BME280;6456;42.680;23.260;2023-07-13T04:37:55;94840.34;;;22.86;94.80
12785;BME280;6456;42.680;23.260;2023-07-13T04:40:22;94836.19;;;22.70;95.18
12785;BME280;6456;42.680;23.260;2023-07-13T04:42:48;94908.72;;;23.18;96.57
12785;BME280;6456;42.680;23.260;2023-07-13T04:45:15;94927.72;;;23.26;96.38
12785;BME280;6456;42.680;23.260;2023-07-13T04:47:44;94856.72;;;22.85;96.24
12785;BME280;6456;42.680;23.260;2023-07-13T04:50:12;94924.41;;;23.34;97.23
12785;BME280;6456;42.680;23.260;2023-07-13T04:52:40;94931.75;;;23.24;98.45
12785;BME280;6456;42.680;23.260;2023-07-13T04:55:08;94945.47;;;23.51;97.24
12785;BME280;6456;42.680;23.260;2023-07-13T04:57:35;94939.19;;;23.60;97.08
12785;BME280;6456;42.680;23.260;2023-07-13T05:00:02;94942.56;;;23.71;96.14
12785;BME280;6456;42.680;23.260;2023-07-13T05:02:30;94866.13;;;23.35;95.94
12785;BME280;6456;42.680;23.260;2023-07-13T05:04:59;94942.91;;;23.88;96.39
12785;BME280;6456;42.680;23.260;2023-07-13T05:07:26;94935.34;;;23.90;96.55
12785;BME280;6456;42.680;23.260;2023-07-13T05:09:54;94898.09;;;23.60;96.20
12785;BME280;6456;42.680;23.260;2023-07-13T05:12:21;94879.94;;;23.52;96.15
12785;BME280;6456;42.680;23.260;2023-07-13T05:14:48;94948.72;;;23.95;97.33
12785;BME280;6456;42.680;23.260;2023-07-13T05:17:15;94951.88;;;24.02;96.37
12785;BME280;6456;42.680;23.260;2023-07-13T05:19:43;94937.63;;;24.02;93.73
12785;BME280;6456;42.680;23.260;2023-07-13T05:22:12;94864.72;;;23.66;90.15
12785;BME280;6456;42.680;23.260;2023-07-13T05:24:39;94942.97;;;24.26;88.97
12785;BME280;6456;42.680;23.260;2023-07-13T05:27:06;94929.84;;;24.24;88.45
12785;BME280;6456;42.680;23.260;2023-07-13T05:29:34;94944.03;;;24.30;89.95
12785;BME280;6456;42.680;23.260;2023-07-13T05:32:01;94954.84;;;24.43;91.91
12785;BME280;6456;42.680;23.260;2023-07-13T05:34:29;94961.59;;;24.41;89.53
12785;BME280;6456;42.680;23.260;2023-07-13T05:36:55;94956.78;;;24.38;87.07
12785;BME280;6456;42.680;23.260;2023-07-13T05:39:24;94954.63;;;24.40;87.04
12785;BME280;6456;42.680;23.260;2023-07-13T05:41:51;94959.88;;;24.50;86.73
12785;BME280;6456;42.680;23.260;2023-07-13T05:44:18;94963.06;;;24.52;87.33
12785;BME280;6456;42.680;23.260;2023-07-13T05:46:45;94852.56;;;23.92;87.75
12785;BME280;6456;42.680;23.260;2023-07-13T05:49:12;94959.13;;;24.63;87.31
12785;BME280;6456;42.680;23.260;2023-07-13T05:51:39;94959.50;;;24.75;88.61
12785;BME280;6456;42.680;23.260;2023-07-13T05:54:06;94950.50;;;24.84;89.12
12785;BME280;6456;42.680;23.260;2023-07-13T05:56:34;94954.91;;;24.94;89.21
12785;BME280;6456;42.680;23.260;2023-07-13T05:59:00;94917.78;;;24.77;88.70
12785;BME280;6456;42.680;23.260;2023-07-13T06:01:29;94917.94;;;25.00;87.50
12785;BME280;6456;42.680;23.260;2023-07-13T06:03:56;94944.63;;;25.28;86.27
12785;BME280;6456;42.680;23.260;2023-07-13T06:06:23;94937.06;;;25.30;86.36
12785;BME280;6456;42.680;23.260;2023-07-13T06:08:50;94908.31;;;25.12;86.37
12785;BME280;6456;42.680;23.260;2023-07-13T06:11:18;94942.19;;;25.45;83.78
12785;BME280;6456;42.680;23.260;2023-07-13T06:13:47;94913.63;;;25.31;80.01
12785;BME280;6456;42.680;23.260;2023-07-13T06:16:14;94948.50;;;25.55;79.17
12785;BME280;6456;42.680;23.260;2023-07-13T06:18:41;94917.72;;;25.42;77.90
12785;BME280;6456;42.680;23.260;2023-07-13T06:21:08;94954.53;;;25.65;76.16
12785;BME280;6456;42.680;23.260;2023-07-13T06:23:36;94955.38;;;25.61;74.85
12785;BME280;6456;42.680;23.260;2023-07-13T06:26:03;94929.75;;;25.50;76.41
12785;BME280;6456;42.680;23.260;2023-07-13T06:28:32;94875.06;;;25.03;76.69
12785;BME280;6456;42.680;23.260;2023-07-13T06:31:01;94856.81;;;25.00;78.62
12785;BME280;6456;42.680;23.260;2023-07-13T06:33:28;94963.91;;;25.81;78.95
12785;BME280;6456;42.680;23.260;2023-07-13T06:35:54;94866.44;;;25.33;77.79
12785;BME280;6456;42.680;23.260;2023-07-13T06:38:21;94948.81;;;25.94;75.94
12785;BME280;6456;42.680;23.260;2023-07-13T06:40:48;94957.09;;;26.11;76.33
12785;BME280;6456;42.680;23.260;2023-07-13T06:43:15;94888.25;;;25.78;75.56
12785;BME280;6456;42.680;23.260;2023-07-13T06:45:45;94889.81;;;25.92;74.63
12785;BME280;6456;42.680;23.260;2023-07-13T06:48:17;94947.69;;;26.36;74.03
12785;BME280;6456;42.680;23.260;2023-07-13T06:50:44;94884.22;;;26.02;74.89
12785;BME280;6456;42.680;23.260;2023-07-13T06:53:12;94898.06;;;26.23;75.03
12785;BME280;6456;42.680;23.260;2023-07-13T06:55:39;94920.44;;;26.37;75.33
12785;BME280;6456;42.680;23.260;2023-07-13T06:58:06;94940.66;;;26.62;73.29
12785;BME280;6456;42.680;23.260;2023-07-13T07:00:36;94883.25;;;26.34;73.51
12785;BME280;6456;42.680;23.260;2023-07-13T07:03:02;94955.19;;;26.74;75.06
12785;BME280;6456;42.680;23.260;2023-07-13T07:05:31;94905.69;;;26.43;73.88
12785;BME280;6456;42.680;23.260;2023-07-13T07:07:58;94945.81;;;26.72;74.78
12785;BME280;6456;42.680;23.260;2023-07-13T07:10:30;94884.34;;;26.33;73.52
12785;BME280;6456;42.680;23.260;2023-07-13T07:12:57;94912.25;;;26.64;71.20
12785;BME280;6456;42.680;23.260;2023-07-13T07:15:24;94911.19;;;26.74;70.70
12785;BME280;6456;42.680;23.260;2023-07-13T07:17:50;94945.81;;;27.08;71.42
12785;BME280;6456;42.680;23.260;2023-07-13T07:20:17;94931.63;;;27.02;70.25
12785;BME280;6456;42.680;23.260;2023-07-13T07:22:45;94925.84;;;27.17;69.69
12785;BME280;6456;42.680;23.260;2023-07-13T07:25:12;94941.72;;;27.41;69.03
12785;BME280;6456;42.680;23.260;2023-07-13T07:27:39;94835.59;;;26.88;67.90
12785;BME280;6456;42.680;23.260;2023-07-13T07:30:07;94900.13;;;27.28;68.03
12785;BME280;6456;42.680;23.260;2023-07-13T07:32:34;94939.34;;;27.70;68.96
12785;BME280;6456;42.680;23.260;2023-07-13T07:35:01;94921.38;;;27.74;67.40
12785;BME280;6456;42.680;23.260;2023-07-13T07:37:28;94909.88;;;27.69;70.29
12785;BME280;6456;42.680;23.260;2023-07-13T07:39:56;94868.19;;;27.61;70.17
12785;BME280;6456;42.680;23.260;2023-07-13T07:42:22;94853.53;;;27.54;68.96
12785;BME280;6456;42.680;23.260;2023-07-13T07:44:49;94917.88;;;28.13;66.61
12785;BME280;6456;42.680;23.260;2023-07-13T07:47:16;94859.97;;;27.75;65.81
12785;BME280;6456;42.680;23.260;2023-07-13T07:49:43;94889.19;;;28.04;65.96
12785;BME280;6456;42.680;23.260;2023-07-13T07:52:10;94854.28;;;27.93;65.63
12785;BME280;6456;42.680;23.260;2023-07-13T07:54:36;94880.00;;;28.13;64.20
12785;BME280;6456;42.680;23.260;2023-07-13T07:57:05;94901.19;;;28.37;63.18
12785;BME280;6456;42.680;23.260;2023-07-13T07:59:33;94901.03;;;28.50;62.91
12785;BME280;6456;42.680;23.260;2023-07-13T08:02:00;94903.31;;;28.66;63.33
12785;BME280;6456;42.680;23.260;2023-07-13T08:04:28;94857.22;;;28.48;64.36
12785;BME280;6456;42.680;23.260;2023-07-13T08:06:55;94900.25;;;28.84;63.19
12785;BME280;6456;42.680;23.260;2023-07-13T08:09:22;94894.22;;;28.87;61.22
12785;BME280;6456;42.680;23.260;2023-07-13T08:11:49;94878.25;;;28.94;61.22
12785;BME280;6456;42.680;23.260;2023-07-13T08:14:19;94804.06;;;28.44;59.16
12785;BME280;6456;42.680;23.260;2023-07-13T08:16:45;94859.00;;;28.87;59.10
12785;BME280;6456;42.680;23.260;2023-07-13T08:19:12;94879.34;;;29.10;58.29
12785;BME280;6456;42.680;23.260;2023-07-13T08:21:39;94890.19;;;29.28;58.77
12785;BME280;6456;42.680;23.260;2023-07-13T08:24:07;94841.59;;;29.05;58.53
12785;BME280;6456;42.680;23.260;2023-07-13T08:26:35;94874.84;;;29.32;59.18
12785;BME280;6456;42.680;23.260;2023-07-13T08:29:02;94831.06;;;29.12;57.67
12785;BME280;6456;42.680;23.260;2023-07-13T08:31:31;94844.75;;;29.25;56.82
12785;BME280;6456;42.680;23.260;2023-07-13T08:33:58;94878.91;;;29.55;56.05
12785;BME280;6456;42.680;23.260;2023-07-13T08:36:25;94884.41;;;29.75;55.12
12785;BME280;6456;42.680;23.260;2023-07-13T08:38:53;94872.63;;;29.80;58.59
12785;BME280;6456;42.680;23.260;2023-07-13T08:41:20;94872.59;;;29.89;55.36
12785;BME280;6456;42.680;23.260;2023-07-13T08:43:50;94806.41;;;29.43;54.32
12785;BME280;6456;42.680;23.260;2023-07-13T08:46:20;94878.91;;;30.01;56.11
12785;BME280;6456;42.680;23.260;2023-07-13T08:48:53;94873.13;;;30.03;56.27
12785;BME280;6456;42.680;23.260;2023-07-13T08:51:28;94862.66;;;29.93;53.28
12785;BME280;6456;42.680;23.260;2023-07-13T08:54:01;94857.09;;;29.89;55.35
12785;BME280;6456;42.680;23.260;2023-07-13T08:56:32;94776.88;;;29.50;54.57
12785;BME280;6456;42.680;23.260;2023-07-13T08:59:02;94819.47;;;29.79;51.38
12785;BME280;6456;42.680;23.260;2023-07-13T09:01:44;94855.13;;;29.98;51.14
12785;BME280;6456;42.680;23.260;2023-07-13T09:04:18;94790.78;;;29.69;51.35
12785;BME280;6456;42.680;23.260;2023-07-13T09:06:59;94836.66;;;30.12;52.57
12785;BME280;6456;42.680;23.260;2023-07-13T09:09:39;94839.13;;;30.05;50.60
12785;BME280;6456;42.680;23.260;2023-07-13T09:12:14;94881.34;;;30.44;54.28
12785;BME280;6456;42.680;23.260;2023-07-13T09:14:47;94825.09;;;30.24;54.70
12785;BME280;6456;42.680;23.260;2023-07-13T09:17:17;94885.66;;;30.66;51.30
12785;BME280;6456;42.680;23.260;2023-07-13T09:19:57;94831.81;;;30.47;51.42
12785;BME280;6456;42.680;23.260;2023-07-13T09:22:26;94902.28;;;31.05;51.45
12785;BME280;6456;42.680;23.260;2023-07-13T09:25:00;94840.66;;;30.77;52.28
12785;BME280;6456;42.680;23.260;2023-07-13T09:27:33;94906.31;;;31.32;52.12
12785;BME280;6456;42.680;23.260;2023-07-13T09:30:17;94884.25;;;31.34;52.05
12785;BME280;6456;42.680;23.260;2023-07-13T09:32:53;94897.72;;;31.42;50.83
12785;BME280;6456;42.680;23.260;2023-07-13T09:35:25;94904.59;;;31.60;48.90
12785;BME280;6456;42.680;23.260;2023-07-13T09:37:57;94899.72;;;31.66;48.74
12785;BME280;6456;42.680;23.260;2023-07-13T09:40:30;94875.25;;;31.54;44.09
12785;BME280;6456;42.680;23.260;2023-07-13T09:43:04;94883.19;;;31.71;36.99
12785;BME280;6456;42.680;23.260;2023-07-13T09:45:33;94898.50;;;31.88;34.53
12785;BME280;6456;42.680;23.260;2023-07-13T09:48:05;94893.94;;;31.92;33.92
12785;BME280;6456;42.680;23.260;2023-07-13T09:50:34;94881.72;;;31.98;33.79
12785;BME280;6456;42.680;23.260;2023-07-13T09:53:02;94832.84;;;31.77;35.13
12785;BME280;6456;42.680;23.260;2023-07-13T09:55:34;94854.06;;;32.08;33.96
12785;BME280;6456;42.680;23.260;2023-07-13T09:58:08;94866.28;;;32.26;33.76
12785;BME280;6456;42.680;23.260;2023-07-13T10:00:36;94844.97;;;32.16;33.98
12785;BME280;6456;42.680;23.260;2023-07-13T10:03:13;94870.13;;;32.37;35.66
12785;BME280;6456;42.680;23.260;2023-07-13T10:05:45;94821.81;;;32.22;34.39
12785;BME280;6456;42.680;23.260;2023-07-13T10:08:23;94845.03;;;32.44;33.84
12785;BME280;6456;42.680;23.260;2023-07-13T10:10:57;94798.56;;;32.24;35.27
12785;BME280;6456;42.680;23.260;2023-07-13T10:13:27;94844.19;;;32.67;32.89
12785;BME280;6456;42.680;23.260;2023-07-13T10:15:57;94847.34;;;32.69;32.09
12785;BME280;6456;42.680;23.260;2023-07-13T10:18:25;94781.28;;;32.32;32.61
12785;BME280;6456;42.680;23.260;2023-07-13T10:21:00;94811.09;;;32.53;32.03
12785;BME280;6456;42.680;23.260;2023-07-13T10:23:36;94844.78;;;32.88;32.00
12785;BME280;6456;42.680;23.260;2023-07-13T10:26:03;94850.44;;;32.95;32.98
12785;BME280;6456;42.680;23.260;2023-07-13T10:28:34;94852.72;;;32.93;31.27
12785;BME280;6456;42.680;23.260;2023-07-13T10:31:06;94857.47;;;32.97;32.30
12785;BME280;6456;42.680;23.260;2023-07-13T10:33:37;94825.97;;;32.83;30.92
12785;BME280;6456;42.680;23.260;2023-07-13T10:36:27;94829.25;;;32.89;31.52
12785;BME280;6456;42.680;23.260;2023-07-13T10:38:57;94793.16;;;32.80;31.14
12785;BME280;6456;42.680;23.260;2023-07-13T10:41:27;94838.84;;;33.26;35.10
12785;BME280;6456;42.680;23.260;2023-07-13T10:43:58;94799.28;;;33.05;30.85
12785;BME280;6456;42.680;23.260;2023-07-13T10:46:28;94764.09;;;32.84;32.02
12785;BME280;6456;42.680;23.260;2023-07-13T10:48:58;94819.56;;;33.35;32.21
12785;BME280;6456;42.680;23.260;2023-07-13T10:51:28;94821.31;;;33.43;30.92
12785;BME280;6456;42.680;23.260;2023-07-13T10:54:16;94814.22;;;33.54;32.62
12785;BME280;6456;42.680;23.260;2023-07-13T10:56:44;94783.06;;;33.39;31.56
12785;BME280;6456;42.680;23.260;2023-07-13T10:59:13;94811.75;;;33.65;31.06
12785;BME280;6456;42.680;23.260;2023-07-13T11:01:52;94815.00;;;33.70;31.20
12785;BME280;6456;42.680;23.260;2023-07-13T11:04:20;94779.00;;;33.65;31.38
12785;BME280;6456;42.680;23.260;2023-07-13T11:06:56;94768.19;;;33.68;31.18
12785;BME280;6456;42.680;23.260;2023-07-13T11:09:37;94800.88;;;33.99;31.48
12785;BME280;6456;42.680;23.260;2023-07-13T11:15:06;94719.63;;;33.58;30.10
12785;BME280;6456;42.680;23.260;2023-07-13T11:17:46;94785.22;;;33.96;29.47
12785;BME280;6456;42.680;23.260;2023-07-13T11:20:32;94724.38;;;33.61;30.13
12785;BME280;6456;42.680;23.260;2023-07-13T11:23:30;94789.88;;;34.11;30.85
12785;BME280;6456;42.680;23.260;2023-07-13T11:25:58;94756.59;;;34.06;31.50
12785;BME280;6456;42.680;23.260;2023-07-13T11:28:30;94761.69;;;34.07;30.13
12785;BME280;6456;42.680;23.260;2023-07-13T11:31:03;94752.06;;;34.13;30.00
12785;BME280;6456;42.680;23.260;2023-07-13T11:33:58;94762.56;;;34.31;31.52
12785;BME280;6456;42.680;23.260;2023-07-13T11:36:31;94716.47;;;34.10;31.77
12785;BME280;6456;42.680;23.260;2023-07-13T11:39:10;94731.38;;;34.32;30.79
12785;BME280;6456;42.680;23.260;2023-07-13T11:41:43;94698.13;;;34.07;30.82
12785;BME280;6456;42.680;23.260;2023-07-13T11:44:14;94740.94;;;34.41;30.52
12785;BME280;6456;42.680;23.260;2023-07-13T11:46:45;94747.50;;;34.56;30.34
12785;BME280;6456;42.680;23.260;2023-07-13T11:49:16;94749.09;;;34.57;30.38
12785;BME280;6456;42.680;23.260;2023-07-13T11:51:44;94716.78;;;34.43;29.94
12785;BME280;6456;42.680;23.260;2023-07-13T11:54:23;94748.34;;;34.60;29.17
12785;BME280;6456;42.680;23.260;2023-07-13T11:56:52;94747.06;;;34.73;29.18
12785;BME280;6456;42.680;23.260;2023-07-13T11:59:19;94750.66;;;34.77;29.03
12785;BME280;6456;42.680;23.260;2023-07-13T12:01:51;94660.66;;;34.27;29.18
12785;BME280;6456;42.680;23.260;2023-07-13T12:04:23;94710.88;;;34.60;28.88
12785;BME280;6456;42.680;23.260;2023-07-13T12:07:04;94741.28;;;34.97;29.21
12785;BME280;6456;42.680;23.260;2023-07-13T12:09:34;94650.41;;;34.43;28.95
12785;BME280;6456;42.680;23.260;2023-07-13T12:12:02;94708.56;;;34.82;28.10
12785;BME280;6456;42.680;23.260;2023-07-13T12:14:37;94739.09;;;35.06;27.38
12785;BME280;6456;42.680;23.260;2023-07-13T12:17:09;94723.28;;;34.96;27.75
12785;BME280;6456;42.680;23.260;2023-07-13T12:19:45;94730.97;;;35.10;27.93
12785;BME280;6456;42.680;23.260;2023-07-13T12:22:14;94671.00;;;34.78;28.97
12785;BME280;6456;42.680;23.260;2023-07-13T12:24:43;94622.94;;;34.55;27.44
12785;BME280;6456;42.680;23.260;2023-07-13T12:27:18;94714.19;;;35.11;27.28
12785;BME280;6456;42.680;23.260;2023-07-13T12:29:50;94701.97;;;35.05;27.81
12785;BME280;6456;42.680;23.260;2023-07-13T12:32:19;94693.75;;;35.05;28.92
12785;BME280;6456;42.680;23.260;2023-07-13T12:34:53;94703.31;;;35.15;28.68
12785;BME280;6456;42.680;23.260;2023-07-13T12:37:22;94687.63;;;35.12;28.16
12785;BME280;6456;42.680;23.260;2023-07-13T12:39:53;94703.88;;;35.27;28.91
12785;BME280;6456;42.680;23.260;2023-07-13T12:42:26;94686.75;;;35.30;28.33
12785;BME280;6456;42.680;23.260;2023-07-13T12:44:56;94699.38;;;35.38;28.35
12785;BME280;6456;42.680;23.260;2023-07-13T12:47:24;94645.81;;;35.11;26.88
12785;BME280;6456;42.680;23.260;2023-07-13T12:49:54;94688.59;;;35.49;26.20
12785;BME280;6456;42.680;23.260;2023-07-13T12:52:27;94699.97;;;35.51;27.42
12785;BME280;6456;42.680;23.260;2023-07-13T12:55:04;94651.03;;;35.20;27.31
12785;BME280;6456;42.680;23.260;2023-07-13T12:57:31;94677.13;;;35.40;27.50
12785;BME280;6456;42.680;23.260;2023-07-13T12:59:58;94676.81;;;35.45;27.08
12785;BME280;6456;42.680;23.260;2023-07-13T13:02:32;94672.69;;;35.55;26.99
12785;BME280;6456;42.680;23.260;2023-07-13T13:05:05;94613.56;;;35.24;28.30
12785;BME280;6456;42.680;23.260;2023-07-13T13:07:32;94672.47;;;35.67;27.84
12785;BME280;6456;42.680;23.260;2023-07-13T13:10:01;94669.75;;;35.67;26.14
12785;BME280;6456;42.680;23.260;2023-07-13T13:12:27;94613.34;;;35.36;26.67
12785;BME280;6456;42.680;23.260;2023-07-13T13:14:54;94628.59;;;35.60;26.15